sensor_id;sensor_type;location;lat;lon;timestamp;pressure;altitude;pressure_sealevel;temperature;humidity
51313;BME280;37397;53.226;10.400;2023-04-15T00:01:46;100478.50;;;10.50;65.05
51313;BME280;37397;53.226;10.400;2023-04-15T00:04:13;100476.91;;;10.49;64.98
51313;BME280;37397;53.226;10.400;2023-04-15T00:06:40;100463.63;;;10.46;64.92
51313;BME280;37397;53.226;10.400;2023-04-15T00:09:06;100473.28;;;10.49;64.93
51313;BME280;37397;53.226;10.400;2023-04-15T00:11:33;100459.97;;;10.46;64.78
51313;BME280;37397;53.226;10.400;2023-04-15T00:14:00;100464.44;;;10.47;64.94
51313;BME280;37397;53.226;10.400;2023-04-15T00:16:26;100469.03;;;10.44;65.29
51313;BME280;37397;53.226;10.400;2023-04-15T00:18:53;100458.09;;;10.43;65.48
51313;BME280;37397;53.226;10.400;2023-04-15T00:21:20;100470.28;;;10.43;65.38
51313;BME280;37397;53.226;10.400;2023-04-15T00:23:47;100473.16;;;10.43;65.44
51313;BME280;37397;53.226;10.400;2023-04-15T00:26:18;100465.88;;;10.42;65.48
51313;BME280;37397;53.226;10.400;2023-04-15T00:28:47;100465.06;;;10.42;65.30
51313;BME280;37397;53.226;10.400;2023-04-15T00:31:14;100465.28;;;10.38;65.43
51313;BME280;37397;53.226;10.400;2023-04-15T00:33:41;100470.00;;;10.41;65.40
51313;BME280;37397;53.226;10.400;2023-04-15T00:36:07;100456.22;;;10.39;65.56
51313;BME280;37397;53.226;10.400;2023-04-15T00:38:37;100459.56;;;10.38;65.35
51313;BME280;37397;53.226;10.400;2023-04-15T00:41:04;100468.44;;;10.40;65.50
51313;BME280;37397;53.226;10.400;2023-04-15T00:43:31;100462.75;;;10.40;65.24
51313;BME280;37397;53.226;10.400;2023-04-15T00:45:58;100455.16;;;10.37;65.19
51313;BME280;37397;53.226;10.400;2023-04-15T00:48:26;100458.78;;;10.37;65.45
51313;BME280;37397;53.226;10.400;2023-04-15T00:50:53;100454.34;;;10.36;65.54
51313;BME280;37397;53.226;10.400;2023-04-15T00:53:19;100454.84;;;10.35;65.55
51313;BME280;37397;53.226;10.400;2023-04-15T00:55:46;100464.97;;;10.36;65.49
51313;BME280;37397;53.226;10.400;2023-04-15T00:58:13;100467.53;;;10.34;65.64
51313;BME280;37397;53.226;10.400;2023-04-15T01:00:41;100458.50;;;10.35;65.65
51313;BME280;37397;53.226;10.400;2023-04-15T01:03:08;100451.69;;;10.33;65.56
51313;BME280;37397;53.226;10.400;2023-04-15T01:05:35;100441.53;;;10.32;65.60
51313;BME280;37397;53.226;10.400;2023-04-15T01:08:02;100450.09;;;10.32;65.59
51313;BME280;37397;53.226;10.400;2023-04-15T01:10:30;100455.31;;;10.33;65.57
51313;BME280;37397;53.226;10.400;2023-04-15T01:12:57;100447.22;;;10.32;65.37
51313;BME280;37397;53.226;10.400;2023-04-15T01:15:24;100442.81;;;10.31;65.62
51313;BME280;37397;53.226;10.400;2023-04-15T01:17:51;100448.53;;;10.31;65.67
51313;BME280;37397;53.226;10.400;2023-04-15T01:20:19;100433.94;;;10.29;65.41
51313;BME280;37397;53.226;10.400;2023-04-15T01:22:45;100429.84;;;10.30;65.73
51313;BME280;37397;53.226;10.400;2023-04-15T01:25:17;100439.66;;;10.29;65.69
51313;BME280;37397;53.226;10.400;2023-04-15T01:27:44;100433.16;;;10.28;65.70
51313;BME280;37397;53.226;10.400;2023-04-15T01:30:11;100433.66;;;10.27;65.74
51313;BME280;37397;53.226;10.400;2023-04-15T01:32:37;100429.25;;;10.26;65.78
51313;BME280;37397;53.226;10.400;2023-04-15T01:35:04;100428.75;;;10.27;65.71
51313;BME280;37397;53.226;10.400;2023-04-15T01:37:31;100430.50;;;10.25;65.77
51313;BME280;37397;53.226;10.400;2023-04-15T01:39:58;100432.09;;;10.26;65.74
51313;BME280;37397;53.226;10.400;2023-04-15T01:42:25;100432.59;;;10.24;65.85
51313;BME280;37397;53.226;10.400;2023-04-15T01:44:53;100437.47;;;10.23;65.76
51313;BME280;37397;53.226;10.400;2023-04-15T01:47:19;100429.75;;;10.24;65.80
51313;BME280;37397;53.226;10.400;2023-04-15T01:49:47;100423.22;;;10.23;65.77
51313;BME280;37397;53.226;10.400;2023-04-15T01:52:13;100422.16;;;10.21;65.99
51313;BME280;37397;53.226;10.400;2023-04-15T01:54:41;100410.44;;;10.19;66.05
51313;BME280;37397;53.226;10.400;2023-04-15T01:57:07;100411.25;;;10.19;66.39
51313;BME280;37397;53.226;10.400;2023-04-15T01:59:34;100408.06;;;10.17;66.47
51313;BME280;37397;53.226;10.400;2023-04-15T02:02:01;100410.13;;;10.17;66.78
51313;BME280;37397;53.226;10.400;2023-04-15T02:04:28;100410.63;;;10.15;66.53
51313;BME280;37397;53.226;10.400;2023-04-15T02:06:58;100414.28;;;10.16;66.54
51313;BME280;37397;53.226;10.400;2023-04-15T02:09:25;100405.72;;;10.16;66.56
51313;BME280;37397;53.226;10.400;2023-04-15T02:11:51;100402.06;;;10.15;66.41
51313;BME280;37397;53.226;10.400;2023-04-15T02:14:19;100404.34;;;10.11;66.28
51313;BME280;37397;53.226;10.400;2023-04-15T02:16:46;100402.88;;;10.16;66.28
51313;BME280;37397;53.226;10.400;2023-04-15T02:19:14;100409.06;;;10.14;66.32
51313;BME280;37397;53.226;10.400;2023-04-15T02:21:41;100397.34;;;10.12;66.47
51313;BME280;37397;53.226;10.400;2023-04-15T02:24:07;100404.63;;;10.13;66.65
51313;BME280;37397;53.226;10.400;2023-04-15T02:26:34;100406.72;;;10.13;66.51
51313;BME280;37397;53.226;10.400;2023-04-15T02:29:00;100406.72;;;10.13;66.66
51313;BME280;37397;53.226;10.400;2023-04-15T02:31:27;100410.81;;;10.12;66.84
51313;BME280;37397;53.226;10.400;2023-04-15T02:33:54;100410.53;;;10.10;67.02
51313;BME280;37397;53.226;10.400;2023-04-15T02:36:21;100401.66;;;10.08;67.04
51313;BME280;37397;53.226;10.400;2023-04-15T02:38:49;100399.63;;;10.08;67.23
51313;BME280;37397;53.226;10.400;2023-04-15T02:41:16;100401.19;;;10.09;67.00
51313;BME280;37397;53.226;10.400;2023-04-15T02:43:44;100406.59;;;10.07;66.92
51313;BME280;37397;53.226;10.400;2023-04-15T02:46:12;100410.22;;;10.08;66.99
51313;BME280;37397;53.226;10.400;2023-04-15T02:48:40;100404.50;;;10.08;67.28
51313;BME280;37397;53.226;10.400;2023-04-15T02:51:15;100394.91;;;10.05;66.96
51313;BME280;37397;53.226;10.400;2023-04-15T02:53:42;100400.59;;;10.05;67.05
51313;BME280;37397;53.226;10.400;2023-04-15T02:56:09;100397.44;;;10.03;67.34
51313;BME280;37397;53.226;10.400;2023-04-15T02:58:38;100404.22;;;10.06;67.43
51313;BME280;37397;53.226;10.400;2023-04-15T03:01:04;100399.78;;;10.04;67.18
51313;BME280;37397;53.226;10.400;2023-04-15T03:03:31;100409.16;;;10.05;67.13
51313;BME280;37397;53.226;10.400;2023-04-15T03:05:58;100395.88;;;10.02;67.51
51313;BME280;37397;53.226;10.400;2023-04-15T03:08:25;100399.50;;;10.02;67.95
51313;BME280;37397;53.226;10.400;2023-04-15T03:10:51;100402.84;;;10.01;68.00
51313;BME280;37397;53.226;10.400;2023-04-15T03:13:19;100398.44;;;10.00;67.83
51313;BME280;37397;53.226;10.400;2023-04-15T03:15:46;100402.06;;;10.00;67.87
51313;BME280;37397;53.226;10.400;2023-04-15T03:18:14;100388.28;;;9.99;67.78
51313;BME280;37397;53.226;10.400;2023-04-15T03:20:40;100395.56;;;10.00;68.21
51313;BME280;37397;53.226;10.400;2023-04-15T03:23:07;100389.06;;;9.99;67.87
51313;BME280;37397;53.226;10.400;2023-04-15T03:25:34;100383.38;;;9.99;68.02
51313;BME280;37397;53.226;10.400;2023-04-15T03:28:04;100389.56;;;9.98;68.06
51313;BME280;37397;53.226;10.400;2023-04-15T03:30:31;100392.41;;;9.98;67.90
51313;BME280;37397;53.226;10.400;2023-04-15T03:32:58;100386.69;;;9.98;67.72
51313;BME280;37397;53.226;10.400;2023-04-15T03:35:25;100394.00;;;9.99;67.66
51313;BME280;37397;53.226;10.400;2023-04-15T03:37:51;100394.00;;;9.99;68.32
51313;BME280;37397;53.226;10.400;2023-04-15T03:40:20;100390.84;;;9.97;68.51
51313;BME280;37397;53.226;10.400;2023-04-15T03:42:46;100382.78;;;9.95;68.62
51313;BME280;37397;53.226;10.400;2023-04-15T03:45:13;100379.44;;;9.97;68.46
51313;BME280;37397;53.226;10.400;2023-04-15T03:47:40;100387.69;;;9.95;68.70
51313;BME280;37397;53.226;10.400;2023-04-15T03:50:07;100385.63;;;9.95;68.82
51313;BME280;37397;53.226;10.400;2023-04-15T03:52:34;100386.91;;;9.94;68.75
51313;BME280;37397;53.226;10.400;2023-04-15T03:55:01;100383.28;;;9.94;68.83
51313;BME280;37397;53.226;10.400;2023-04-15T03:57:27;100381.97;;;9.95;69.20
51313;BME280;37397;53.226;10.400;2023-04-15T03:59:54;100384.81;;;9.95;68.89
51313;BME280;37397;53.226;10.400;2023-04-15T04:02:20;100382.78;;;9.95;69.01
51313;BME280;37397;53.226;10.400;2023-04-15T04:04:48;100384.06;;;9.94;69.26
51313;BME280;37397;53.226;10.400;2023-04-15T04:07:16;100383.56;;;9.96;68.93
51313;BME280;37397;53.226;10.400;2023-04-15T04:09:43;100391.34;;;9.95;68.72
51313;BME280;37397;53.226;10.400;2023-04-15T04:12:12;100389.75;;;9.94;69.15
51313;BME280;37397;53.226;10.400;2023-04-15T04:14:39;100390.53;;;9.95;69.17
51313;BME280;37397;53.226;10.400;2023-04-15T04:17:06;100387.69;;;9.95;68.98
51313;BME280;37397;53.226;10.400;2023-04-15T04:19:32;100394.19;;;9.95;68.84
51313;BME280;37397;53.226;10.400;2023-04-15T04:21:59;100391.34;;;9.95;68.81
51313;BME280;37397;53.226;10.400;2023-04-15T04:24:26;100389.25;;;9.96;68.98
51313;BME280;37397;53.226;10.400;2023-04-15T04:26:53;100388.97;;;9.94;68.85
51313;BME280;37397;53.226;10.400;2023-04-15T04:29:20;100394.66;;;9.94;68.96
51313;BME280;37397;53.226;10.400;2023-04-15T04:31:46;100397.03;;;9.95;69.11
51313;BME280;37397;53.226;10.400;2023-04-15T04:34:15;100397.19;;;9.92;68.94
51313;BME280;37397;53.226;10.400;2023-04-15T04:36:41;100397.81;;;9.96;68.86
51313;BME280;37397;53.226;10.400;2023-04-15T04:39:08;100401.44;;;9.96;68.81
51313;BME280;37397;53.226;10.400;2023-04-15T04:41:34;100397.03;;;9.95;68.69
51313;BME280;37397;53.226;10.400;2023-04-15T04:44:01;100392.88;;;9.96;68.81
51313;BME280;37397;53.226;10.400;2023-04-15T04:46:28;100396.56;;;9.97;68.55
51313;BME280;37397;53.226;10.400;2023-04-15T04:48:54;100396.56;;;9.97;68.89
51313;BME280;37397;53.226;10.400;2023-04-15T04:51:21;100402.25;;;9.97;68.91
51313;BME280;37397;53.226;10.400;2023-04-15T04:53:47;100398.59;;;9.96;68.73
51313;BME280;37397;53.226;10.400;2023-04-15T04:56:14;100398.09;;;9.98;68.85
51313;BME280;37397;53.226;10.400;2023-04-15T04:58:41;100399.41;;;9.97;68.69
51313;BME280;37397;53.226;10.400;2023-04-15T05:01:07;100409.50;;;9.98;68.69
51313;BME280;37397;53.226;10.400;2023-04-15T05:03:34;100406.16;;;9.99;68.66
51313;BME280;37397;53.226;10.400;2023-04-15T05:06:01;100414.22;;;10.01;68.60
51313;BME280;37397;53.226;10.400;2023-04-15T05:08:31;100411.09;;;9.99;68.80
51313;BME280;37397;53.226;10.400;2023-04-15T05:10:58;100406.97;;;10.00;68.45
51313;BME280;37397;53.226;10.400;2023-04-15T05:13:24;100406.97;;;10.00;68.78
51313;BME280;37397;53.226;10.400;2023-04-15T05:15:51;100405.69;;;10.01;68.63
51313;BME280;37397;53.226;10.400;2023-04-15T05:18:18;100409.81;;;10.00;68.81
51313;BME280;37397;53.226;10.400;2023-04-15T05:20:45;100407.28;;;10.02;68.65
51313;BME280;37397;53.226;10.400;2023-04-15T05:23:11;100408.53;;;10.01;68.74
51313;BME280;37397;53.226;10.400;2023-04-15T05:25:38;100408.53;;;10.01;68.57
51313;BME280;37397;53.226;10.400;2023-04-15T05:28:04;100400.78;;;10.01;68.67
51313;BME280;37397;53.226;10.400;2023-04-15T05:30:31;100410.13;;;10.02;68.65
51313;BME280;37397;53.226;10.400;2023-04-15T05:32:58;100410.13;;;10.02;68.67
51313;BME280;37397;53.226;10.400;2023-04-15T05:35:24;100406.00;;;10.03;68.59
51313;BME280;37397;53.226;10.400;2023-04-15T05:37:51;100404.41;;;10.02;68.63
51313;BME280;37397;53.226;10.400;2023-04-15T05:40:17;100398.72;;;10.02;68.69
51313;BME280;37397;53.226;10.400;2023-04-15T05:42:45;100408.84;;;10.03;68.84
51313;BME280;37397;53.226;10.400;2023-04-15T05:45:11;100407.56;;;10.04;68.72
51313;BME280;37397;53.226;10.400;2023-04-15T05:47:38;100414.03;;;10.04;68.56
51313;BME280;37397;53.226;10.400;2023-04-15T05:50:06;100412.00;;;10.05;68.63
51313;BME280;37397;53.226;10.400;2023-04-15T05:52:33;100416.88;;;10.04;68.95
51313;BME280;37397;53.226;10.400;2023-04-15T05:55:00;100409.63;;;10.03;68.97
51313;BME280;37397;53.226;10.400;2023-04-15T05:57:27;100420.56;;;10.05;68.94
51313;BME280;37397;53.226;10.400;2023-04-15T05:59:53;100411.69;;;10.03;69.89
51313;BME280;37397;53.226;10.400;2023-04-15T06:02:22;100422.09;;;10.06;69.72
51313;BME280;37397;53.226;10.400;2023-04-15T06:04:49;100420.84;;;10.07;69.42
51313;BME280;37397;53.226;10.400;2023-04-15T06:07:15;100430.66;;;10.06;69.38
51313;BME280;37397;53.226;10.400;2023-04-15T06:09:42;100442.38;;;10.08;69.25
51313;BME280;37397;53.226;10.400;2023-04-15T06:12:08;100443.94;;;10.09;69.14
51313;BME280;37397;53.226;10.400;2023-04-15T06:14:37;100438.22;;;10.09;69.19
51313;BME280;37397;53.226;10.400;2023-04-15T06:17:06;100441.09;;;10.09;69.14
51313;BME280;37397;53.226;10.400;2023-04-15T06:19:33;100456.94;;;10.10;69.10
51313;BME280;37397;53.226;10.400;2023-04-15T06:21:59;100446.31;;;10.11;69.11
51313;BME280;37397;53.226;10.400;2023-04-15T06:24:27;100454.38;;;10.12;69.29
51313;BME280;37397;53.226;10.400;2023-04-15T06:26:54;100452.00;;;10.11;69.09
51313;BME280;37397;53.226;10.400;2023-04-15T06:29:21;100449.63;;;10.09;68.96
51313;BME280;37397;53.226;10.400;2023-04-15T06:31:47;100455.19;;;10.13;68.98
51313;BME280;37397;53.226;10.400;2023-04-15T06:34:15;100450.25;;;10.13;68.85
51313;BME280;37397;53.226;10.400;2023-04-15T06:36:41;100451.03;;;10.14;69.07
51313;BME280;37397;53.226;10.400;2023-04-15T06:39:08;100444.25;;;10.11;68.96
51313;BME280;37397;53.226;10.400;2023-04-15T06:41:35;100463.25;;;10.14;69.01
51313;BME280;37397;53.226;10.400;2023-04-15T06:44:02;100463.25;;;10.14;69.05
51313;BME280;37397;53.226;10.400;2023-04-15T06:46:28;100467.66;;;10.15;69.11
51313;BME280;37397;53.226;10.400;2023-04-15T06:48:55;100464.81;;;10.15;68.96
51313;BME280;37397;53.226;10.400;2023-04-15T06:51:21;100477.03;;;10.16;68.96
51313;BME280;37397;53.226;10.400;2023-04-15T06:53:51;100467.66;;;10.15;68.88
51313;BME280;37397;53.226;10.400;2023-04-15T06:56:18;100464.81;;;10.15;69.08
51313;BME280;37397;53.226;10.400;2023-04-15T06:58:45;100477.78;;;10.16;69.00
51313;BME280;37397;53.226;10.400;2023-04-15T07:01:13;100472.09;;;10.16;68.96
51313;BME280;37397;53.226;10.400;2023-04-15T07:03:39;100486.34;;;10.16;69.06
51313;BME280;37397;53.226;10.400;2023-04-15T07:06:07;100485.88;;;10.18;69.19
51313;BME280;37397;53.226;10.400;2023-04-15T07:08:35;100479.34;;;10.17;69.10
51313;BME280;37397;53.226;10.400;2023-04-15T07:11:01;100486.63;;;10.18;69.08
51313;BME280;37397;53.226;10.400;2023-04-15T07:13:30;100483.78;;;10.18;69.14
51313;BME280;37397;53.226;10.400;2023-04-15T07:15:57;100477.78;;;10.16;69.14
51313;BME280;37397;53.226;10.400;2023-04-15T07:18:24;100486.16;;;10.20;69.19
51313;BME280;37397;53.226;10.400;2023-04-15T07:20:50;100477.31;;;10.18;69.59
51313;BME280;37397;53.226;10.400;2023-04-15T07:23:17;100483.31;;;10.20;69.32
51313;BME280;37397;53.226;10.400;2023-04-15T07:25:44;100487.75;;;10.21;69.32
51313;BME280;37397;53.226;10.400;2023-04-15T07:28:10;100494.22;;;10.21;69.59
51313;BME280;37397;53.226;10.400;2023-04-15T07:30:37;100490.09;;;10.22;69.47
51313;BME280;37397;53.226;10.400;2023-04-15T07:33:04;100495.81;;;10.22;69.46
51313;BME280;37397;53.226;10.400;2023-04-15T07:35:30;100493.25;;;10.25;69.50
51313;BME280;37397;53.226;10.400;2023-04-15T07:37:57;100497.69;;;10.26;69.60
51313;BME280;37397;53.226;10.400;2023-04-15T07:40:23;100497.69;;;10.26;69.64
51313;BME280;37397;53.226;10.400;2023-04-15T07:42:50;100500.84;;;10.28;69.41
51313;BME280;37397;53.226;10.400;2023-04-15T07:45:17;100501.81;;;10.25;69.47
51313;BME280;37397;53.226;10.400;2023-04-15T07:47:44;100502.38;;;10.29;69.46
51313;BME280;37397;53.226;10.400;2023-04-15T07:50:11;100503.97;;;10.30;69.49
51313;BME280;37397;53.226;10.400;2023-04-15T07:52:38;100499.53;;;10.29;69.39
51313;BME280;37397;53.226;10.400;2023-04-15T07:55:05;100497.78;;;10.31;69.18
51313;BME280;37397;53.226;10.400;2023-04-15T07:57:34;100505.56;;;10.31;69.29
51313;BME280;37397;53.226;10.400;2023-04-15T08:00:02;100506.66;;;10.33;69.32
51313;BME280;37397;53.226;10.400;2023-04-15T08:02:38;100502.56;;;10.34;69.38
51313;BME280;37397;53.226;10.400;2023-04-15T08:05:06;100511.09;;;10.34;69.56
51313;BME280;37397;53.226;10.400;2023-04-15T08:07:33;100510.63;;;10.36;69.46
51313;BME280;37397;53.226;10.400;2023-04-15T08:09:59;100515.06;;;10.37;69.52
51313;BME280;37397;53.226;10.400;2023-04-15T08:12:26;100517.44;;;10.38;69.39
51313;BME280;37397;53.226;10.400;2023-04-15T08:14:54;100513.75;;;10.38;69.24
51313;BME280;37397;53.226;10.400;2023-04-15T08:17:20;100513.28;;;10.39;69.51
51313;BME280;37397;53.226;10.400;2023-04-15T08:19:47;100515.66;;;10.41;69.54
51313;BME280;37397;53.226;10.400;2023-04-15T08:22:14;100515.66;;;10.41;69.44
51313;BME280;37397;53.226;10.400;2023-04-15T08:24:43;100513.09;;;10.43;69.42
51313;BME280;37397;53.226;10.400;2023-04-15T08:27:10;100521.63;;;10.43;69.97
51313;BME280;37397;53.226;10.400;2023-04-15T08:29:37;100526.84;;;10.45;69.67
51313;BME280;37397;53.226;10.400;2023-04-15T08:32:05;100525.09;;;10.47;69.86
51313;BME280;37397;53.226;10.400;2023-04-15T08:34:31;100524.81;;;10.45;69.58
51313;BME280;37397;53.226;10.400;2023-04-15T08:36:58;100526.69;;;10.48;69.23
51313;BME280;37397;53.226;10.400;2023-04-15T08:39:24;100526.69;;;10.48;69.26
51313;BME280;37397;53.226;10.400;2023-04-15T08:41:59;100533.97;;;10.49;69.36
51313;BME280;37397;53.226;10.400;2023-04-15T08:44:33;100535.53;;;10.50;69.44
51313;BME280;37397;53.226;10.400;2023-04-15T08:47:00;100531.44;;;10.51;69.33
51313;BME280;37397;53.226;10.400;2023-04-15T08:49:28;100535.84;;;10.52;69.51
51313;BME280;37397;53.226;10.400;2023-04-15T08:51:58;100541.84;;;10.54;69.65
51313;BME280;37397;53.226;10.400;2023-04-15T08:54:26;100540.28;;;10.53;69.74
51313;BME280;37397;53.226;10.400;2023-04-15T08:56:53;100538.97;;;10.54;69.66
51313;BME280;37397;53.226;10.400;2023-04-15T08:59:20;100538.69;;;10.52;69.66
51313;BME280;37397;53.226;10.400;2023-04-15T09:01:48;100540.56;;;10.55;69.80
51313;BME280;37397;53.226;10.400;2023-04-15T09:04:16;100542.16;;;10.56;69.64
51313;BME280;37397;53.226;10.400;2023-04-15T09:06:43;100553.88;;;10.58;69.91
51313;BME280;37397;53.226;10.400;2023-04-15T09:09:11;100546.88;;;10.60;69.83
51313;BME280;37397;53.226;10.400;2023-04-15T09:11:39;100548.16;;;10.58;69.74
51313;BME280;37397;53.226;10.400;2023-04-15T09:14:06;100553.66;;;10.62;69.78
51313;BME280;37397;53.226;10.400;2023-04-15T09:17:02;100544.03;;;10.60;69.81
51313;BME280;37397;53.226;10.400;2023-04-15T09:19:30;100558.09;;;10.63;70.18
51313;BME280;37397;53.226;10.400;2023-04-15T09:21:58;100556.84;;;10.64;70.07
51313;BME280;37397;53.226;10.400;2023-04-15T09:24:34;100557.63;;;10.65;69.99
51313;BME280;37397;53.226;10.400;2023-04-15T09:27:02;100555.53;;;10.65;70.07
51313;BME280;37397;53.226;10.400;2023-04-15T09:29:29;100560.28;;;10.68;69.96
51313;BME280;37397;53.226;10.400;2023-04-15T09:31:55;100567.09;;;10.71;69.71
51313;BME280;37397;53.226;10.400;2023-04-15T09:34:34;100566.75;;;10.69;70.25
51313;BME280;37397;53.226;10.400;2023-04-15T09:37:00;100560.41;;;10.74;70.16
51313;BME280;37397;53.226;10.400;2023-04-15T09:39:27;100561.97;;;10.75;70.06
51313;BME280;37397;53.226;10.400;2023-04-15T09:42:09;100567.66;;;10.75;70.26
51313;BME280;37397;53.226;10.400;2023-04-15T09:44:36;100566.69;;;10.78;70.03
51313;BME280;37397;53.226;10.400;2023-04-15T09:47:03;100569.25;;;10.76;69.99
51313;BME280;37397;53.226;10.400;2023-04-15T09:49:29;100573.00;;;10.82;69.89
51313;BME280;37397;53.226;10.400;2023-04-15T09:52:00;100573.78;;;10.83;69.97
51313;BME280;37397;53.226;10.400;2023-04-15T09:54:36;100583.44;;;10.85;69.88
51313;BME280;37397;53.226;10.400;2023-04-15T09:57:07;100574.56;;;10.83;69.77
51313;BME280;37397;53.226;10.400;2023-04-15T09:59:35;100582.47;;;10.88;69.97
51313;BME280;37397;53.226;10.400;2023-04-15T10:02:04;100579.63;;;10.88;69.97
51313;BME280;37397;53.226;10.400;2023-04-15T10:04:35;100581.47;;;10.91;69.86
51313;BME280;37397;53.226;10.400;2023-04-15T10:07:05;100587.50;;;10.93;70.09
51313;BME280;37397;53.226;10.400;2023-04-15T10:09:34;100592.41;;;10.93;70.06
51313;BME280;37397;53.226;10.400;2023-04-15T10:12:04;100595.09;;;10.97;69.94
51313;BME280;37397;53.226;10.400;2023-04-15T10:14:32;100586.53;;;10.97;70.06
51313;BME280;37397;53.226;10.400;2023-04-15T10:17:04;100594.88;;;11.00;70.49
51313;BME280;37397;53.226;10.400;2023-04-15T10:19:32;100599.63;;;11.03;70.54
51313;BME280;37397;53.226;10.400;2023-04-15T10:21:59;100607.38;;;11.03;70.56
51313;BME280;37397;53.226;10.400;2023-04-15T10:24:26;100605.13;;;11.07;70.58
51313;BME280;37397;53.226;10.400;2023-04-15T10:26:53;100610.06;;;11.06;70.64
51313;BME280;37397;53.226;10.400;2023-04-15T10:29:20;100605.75;;;11.11;71.02
51313;BME280;37397;53.226;10.400;2023-04-15T10:31:48;100601.59;;;11.12;70.85
51313;BME280;37397;53.226;10.400;2023-04-15T10:34:16;100614.88;;;11.15;71.40
51313;BME280;37397;53.226;10.400;2023-04-15T10:36:42;100611.06;;;11.18;71.26
51313;BME280;37397;53.226;10.400;2023-04-15T10:42:06;100603.88;;;11.23;71.12
51313;BME280;37397;53.226;10.400;2023-04-15T10:44:34;100607.81;;;11.25;71.16
51313;BME280;37397;53.226;10.400;2023-04-15T10:47:16;100605.25;;;11.27;71.41
51313;BME280;37397;53.226;10.400;2023-04-15T10:49:50;100606.31;;;11.30;71.55
51313;BME280;37397;53.226;10.400;2023-04-15T10:52:24;100603.56;;;11.36;71.78
51313;BME280;37397;53.226;10.400;2023-04-15T10:55:15;100606.72;;;11.38;72.00
51313;BME280;37397;53.226;10.400;2023-04-15T10:57:44;100607.31;;;11.42;71.76
51313;BME280;37397;53.226;10.400;2023-04-15T11:00:13;100602.69;;;11.44;71.43
51313;BME280;37397;53.226;10.400;2023-04-15T11:02:47;100602.19;;;11.46;71.23
51313;BME280;37397;53.226;10.400;2023-04-15T11:05:18;100608.50;;;11.50;71.65
51313;BME280;37397;53.226;10.400;2023-04-15T11:12:56;100604.25;;;11.60;71.55
51313;BME280;37397;53.226;10.400;2023-04-15T11:15:33;100606.91;;;11.64;71.67
51313;BME280;37397;53.226;10.400;2023-04-15T11:18:09;100610.84;;;11.66;71.84
51313;BME280;37397;53.226;10.400;2023-04-15T11:20:37;100618.72;;;11.72;71.68
51313;BME280;37397;53.226;10.400;2023-04-15T11:23:04;100621.91;;;11.74;71.54
51313;BME280;37397;53.226;10.400;2023-04-15T11:25:40;100610.47;;;11.74;71.47
51313;BME280;37397;53.226;10.400;2023-04-15T11:28:07;100612.63;;;11.79;71.63
51313;BME280;37397;53.226;10.400;2023-04-15T11:30:35;100616.34;;;11.85;71.51
51313;BME280;37397;53.226;10.400;2023-04-15T11:33:07;100619.78;;;11.89;71.88
51313;BME280;37397;53.226;10.400;2023-04-15T11:35:35;100618.03;;;11.92;71.78
51313;BME280;37397;53.226;10.400;2023-04-15T11:38:02;100617.22;;;11.91;71.53
51313;BME280;37397;53.226;10.400;2023-04-15T11:40:29;100631.91;;;11.99;71.30
51313;BME280;37397;53.226;10.400;2023-04-15T11:43:13;100627.78;;;12.00;71.44
51313;BME280;37397;53.226;10.400;2023-04-15T11:45:58;100635.16;;;12.07;71.20
51313;BME280;37397;53.226;10.400;2023-04-15T11:48:35;100633.91;;;12.08;71.22
51313;BME280;37397;53.226;10.400;2023-04-15T11:51:06;100634.47;;;12.12;71.29
51313;BME280;37397;53.226;10.400;2023-04-15T11:53:41;100633.47;;;12.15;71.35
51313;BME280;37397;53.226;10.400;2023-04-15T11:56:17;100630.31;;;12.13;71.42
51313;BME280;37397;53.226;10.400;2023-04-15T11:58:44;100632.25;;;12.21;71.25
51313;BME280;37397;53.226;10.400;2023-04-15T12:01:12;100637.75;;;12.25;71.63
51313;BME280;37397;53.226;10.400;2023-04-15T12:03:47;100636.50;;;12.26;71.27
51313;BME280;37397;53.226;10.400;2023-04-15T12:06:19;100638.56;;;12.26;71.08
51313;BME280;37397;53.226;10.400;2023-04-15T12:11:37;100649.69;;;12.38;71.24
51313;BME280;37397;53.226;10.400;2023-04-15T12:14:15;100656.47;;;12.41;71.41
51313;BME280;37397;53.226;10.400;2023-04-15T12:16:44;100662.00;;;12.45;71.28
51313;BME280;37397;53.226;10.400;2023-04-15T12:19:19;100647.38;;;12.43;71.09
51313;BME280;37397;53.226;10.400;2023-04-15T12:21:48;100660.47;;;12.49;70.95
51313;BME280;37397;53.226;10.400;2023-04-15T12:24:19;100659.97;;;12.51;70.78
51313;BME280;37397;53.226;10.400;2023-04-15T12:26:52;100664.72;;;12.54;70.69
51313;BME280;37397;53.226;10.400;2023-04-15T12:29:19;100662.94;;;12.56;71.07
51313;BME280;37397;53.226;10.400;2023-04-15T12:31:52;100669.75;;;12.59;70.88
51313;BME280;37397;53.226;10.400;2023-04-15T12:34:33;100666.88;;;12.59;70.61
51313;BME280;37397;53.226;10.400;2023-04-15T12:37:01;100661.44;;;12.61;70.90
51313;BME280;37397;53.226;10.400;2023-04-15T12:39:34;100670.31;;;12.63;71.41
51313;BME280;37397;53.226;10.400;2023-04-15T12:42:02;100670.09;;;12.67;71.11
51313;BME280;37397;53.226;10.400;2023-04-15T12:44:30;100678.47;;;12.70;70.83
51313;BME280;37397;53.226;10.400;2023-04-15T12:46:56;100666.22;;;12.70;70.62
51313;BME280;37397;53.226;10.400;2023-04-15T12:49:24;100670.69;;;12.71;70.98
51313;BME280;37397;53.226;10.400;2023-04-15T12:51:52;100674.91;;;12.75;71.06
51313;BME280;37397;53.226;10.400;2023-04-15T12:54:20;100682.50;;;12.79;71.01
51313;BME280;37397;53.226;10.400;2023-04-15T12:56:48;100675.47;;;12.80;70.75